Time;durP1;ratioP1;P1;durP2;ratioP2;P2;SDS_P1;SDS_P2;PMS_P1;PMS_P2;Temp;Humidity;BMP_temperature;BMP_pressure;BME280_temperature;BME280_humidity;BME280_pressure;Samples;Min_cycle;Max_cycle;Signal;HPM_P1;HPM_P2
2021/03/24 00:00:39;;;;;;;51.00;25.97;;;;;;;;;;5074328;28;20047;-80
2021/03/24 00:03:05;;;;;;;50.27;25.60;;;;;;;;;;5072848;28;20480;-80
2021/03/24 00:05:32;;;;;;;49.83;25.00;;;;;;;;;;5074079;28;20052;-80
2021/03/24 00:07:58;;;;;;;56.27;27.43;;;;;;;;;;5073913;28;20017;-80
2021/03/24 00:10:24;;;;;;;57.53;26.73;;;;;;;;;;5074081;28;20021;-80
2021/03/24 00:12:49;;;;;;;56.07;27.70;;;;;;;;;;5073569;28;20467;-80
2021/03/24 00:15:15;;;;;;;63.97;30.00;;;;;;;;;;5073746;28;20507;-80
2021/03/24 00:17:40;;;;;;;62.10;29.80;;;;;;;;;;5072363;28;20020;-80
2021/03/24 00:20:06;;;;;;;57.63;27.43;;;;;;;;;;5073113;28;20472;-80
2021/03/24 00:22:32;;;;;;;60.20;28.47;;;;;;;;;;5072485;28;20025;-80
2021/03/24 00:24:57;;;;;;;55.97;27.03;;;;;;;;;;5071974;28;20119;-80
2021/03/24 00:27:22;;;;;;;58.37;28.17;;;;;;;;;;5073740;28;20024;-80
2021/03/24 00:29:47;;;;;;;54.83;27.13;;;;;;;;;;5067167;28;20111;-80
2021/03/24 00:32:12;;;;;;;58.00;27.80;;;;;;;;;;5072765;28;20059;-80
2021/03/24 00:34:38;;;;;;;57.40;26.27;;;;;;;;;;5072505;28;20426;-80
2021/03/24 00:37:03;;;;;;;47.83;26.03;;;;;;;;;;5073445;28;20016;-80
2021/03/24 00:39:28;;;;;;;52.00;26.63;;;;;;;;;;5073504;28;20460;-80
2021/03/24 00:41:54;;;;;;;53.80;26.80;;;;;;;;;;5073425;28;20384;-79
2021/03/24 00:44:19;;;;;;;52.70;27.87;;;;;;;;;;5071787;28;20379;-80
2021/03/24 00:46:44;;;;;;;54.63;27.73;;;;;;;;;;5071999;28;20369;-80
2021/03/24 00:49:09;;;;;;;59.17;28.83;;;;;;;;;;5071874;28;20016;-80
2021/03/24 00:51:34;;;;;;;53.43;26.87;;;;;;;;;;5073739;28;20024;-80
2021/03/24 00:54:00;;;;;;;56.27;26.83;;;;;;;;;;5071829;28;20032;-80
2021/03/24 00:56:25;;;;;;;53.13;27.10;;;;;;;;;;5071925;28;20027;-79
2021/03/24 00:58:50;;;;;;;50.03;26.27;;;;;;;;;;5072913;28;20028;-79
2021/03/24 01:01:15;;;;;;;54.03;26.50;;;;;;;;;;5071861;28;20027;-80
2021/03/24 01:03:41;;;;;;;49.43;24.67;;;;;;;;;;5073024;28;20100;-80
2021/03/24 01:06:06;;;;;;;47.27;25.07;;;;;;;;;;5071304;28;20051;-80
2021/03/24 01:08:31;;;;;;;50.50;25.80;;;;;;;;;;5071773;28;20032;-80
2021/03/24 01:10:57;;;;;;;51.27;26.03;;;;;;;;;;5071679;28;20025;-80
2021/03/24 01:13:22;;;;;;;53.57;26.40;;;;;;;;;;5071448;28;20039;-80
2021/03/24 01:15:48;;;;;;;53.60;27.47;;;;;;;;;;5072745;28;20111;-80
2021/03/24 01:18:13;;;;;;;54.73;26.00;;;;;;;;;;5073116;28;20390;-79
2021/03/24 01:20:40;;;;;;;58.00;27.73;;;;;;;;;;5072931;28;20106;-80
2021/03/24 01:23:05;;;;;;;56.77;25.70;;;;;;;;;;5072845;28;20028;-80
2021/03/24 01:25:31;;;;;;;58.40;27.97;;;;;;;;;;5072246;28;20020;-80
2021/03/24 01:27:56;;;;;;;57.13;27.10;;;;;;;;;;5072832;28;20141;-80
2021/03/24 01:30:23;;;;;;;54.47;25.50;;;;;;;;;;5071262;28;20436;-80
2021/03/24 01:32:48;;;;;;;57.40;26.97;;;;;;;;;;5070455;28;20484;-80
2021/03/24 01:35:15;;;;;;;54.27;25.97;;;;;;;;;;5071234;28;20027;-80
2021/03/24 01:37:41;;;;;;;57.83;26.27;;;;;;;;;;5071408;28;20052;-80
2021/03/24 01:40:08;;;;;;;56.67;26.77;;;;;;;;;;5071183;28;20040;-80
2021/03/24 01:42:33;;;;;;;57.20;27.07;;;;;;;;;;5071140;28;20029;-80
2021/03/24 01:45:01;;;;;;;54.43;25.60;;;;;;;;;;5072364;28;20047;-80
2021/03/24 01:47:28;;;;;;;46.03;23.57;;;;;;;;;;5070604;28;20021;-80
2021/03/24 01:49:53;;;;;;;48.93;24.17;;;;;;;;;;5072611;28;20081;-80
2021/03/24 01:52:18;;;;;;;47.33;25.73;;;;;;;;;;5071110;28;20115;-80
2021/03/24 01:54:43;;;;;;;56.10;25.20;;;;;;;;;;5071186;28;20122;-79
2021/03/24 01:57:35;;;;;;;47.37;24.43;;;;;;;;;;5072299;28;20017;-80
2021/03/24 02:00:00;;;;;;;51.03;25.10;;;;;;;;;;5068166;28;20020;-80
2021/03/24 02:02:28;;;;;;;52.77;25.77;;;;;;;;;;5070964;28;20019;-80
2021/03/24 02:04:53;;;;;;;54.63;27.03;;;;;;;;;;5070821;28;20472;-80
2021/03/24 02:07:25;;;;;;;53.37;26.33;;;;;;;;;;5071074;28;20023;-80
2021/03/24 02:09:58;;;;;;;51.97;25.17;;;;;;;;;;5072137;28;20401;-80
2021/03/24 02:12:28;;;;;;;62.03;26.93;;;;;;;;;;5062280;28;20032;-80
2021/03/24 02:14:55;;;;;;;59.53;27.67;;;;;;;;;;5072647;28;20127;-80
2021/03/24 02:17:25;;;;;;;53.57;25.40;;;;;;;;;;5071019;28;20029;-80
2021/03/24 02:19:59;;;;;;;54.20;26.40;;;;;;;;;;5070832;28;20020;-80
2021/03/24 02:22:27;;;;;;;55.23;27.70;;;;;;;;;;5072097;28;20017;-80
2021/03/24 02:25:02;;;;;;;59.50;27.40;;;;;;;;;;5071888;28;20062;-80
2021/03/24 02:27:35;;;;;;;54.53;25.70;;;;;;;;;;5070837;28;20074;-80
2021/03/24 02:30:04;;;;;;;60.80;27.03;;;;;;;;;;5069775;28;20012;-80
2021/03/24 02:32:32;;;;;;;57.73;26.57;;;;;;;;;;5058367;28;20356;-80
2021/03/24 02:35:00;;;;;;;53.03;25.77;;;;;;;;;;5071930;28;20107;-79
2021/03/24 02:37:26;;;;;;;55.83;26.53;;;;;;;;;;5053473;28;20017;-80
2021/03/24 02:39:52;;;;;;;51.67;24.73;;;;;;;;;;5066866;28;20082;-80
2021/03/24 02:42:18;;;;;;;47.67;24.13;;;;;;;;;;5070600;28;20104;-80
2021/03/24 02:44:44;;;;;;;49.87;24.53;;;;;;;;;;5073726;28;20044;-79
2021/03/24 02:47:09;;;;;;;51.03;24.70;;;;;;;;;;5074126;28;20017;-80
2021/03/24 02:49:36;;;;;;;53.07;25.37;;;;;;;;;;5074084;28;20035;-80
2021/03/24 02:52:02;;;;;;;51.83;25.93;;;;;;;;;;5074336;28;20040;-80
2021/03/24 02:54:30;;;;;;;58.70;27.50;;;;;;;;;;5074123;28;20020;-80
2021/03/24 02:56:55;;;;;;;62.07;28.30;;;;;;;;;;5075321;28;20029;-80
2021/03/24 02:59:20;;;;;;;56.63;27.13;;;;;;;;;;5073682;28;20036;-79
2021/03/24 03:01:54;;;;;;;56.17;26.80;;;;;;;;;;5073839;28;20055;-79
2021/03/24 03:04:23;;;;;;;68.13;26.83;;;;;;;;;;5075494;28;20057;-80
2021/03/24 03:06:50;;;;;;;58.07;26.83;;;;;;;;;;5073424;28;20028;-80
2021/03/24 03:09:21;;;;;;;60.37;27.13;;;;;;;;;;5075784;28;20021;-80
2021/03/24 03:11:59;;;;;;;56.30;25.73;;;;;;;;;;5074871;28;20033;-79
2021/03/24 03:14:32;;;;;;;50.63;24.87;;;;;;;;;;5073790;28;20016;-80
2021/03/24 03:17:10;;;;;;;53.00;25.67;;;;;;;;;;5075019;28;20021;-79
2021/03/24 03:19:37;;;;;;;55.03;25.80;;;;;;;;;;5075190;28;20027;-79
2021/03/24 03:22:09;;;;;;;52.87;25.50;;;;;;;;;;5074931;28;20043;-80
2021/03/24 03:24:47;;;;;;;60.25;25.88;;;;;;;;;;5073577;28;20115;-80
2021/03/24 03:27:13;;;;;;;53.23;25.40;;;;;;;;;;5074960;28;20052;-80
2021/03/24 03:29:41;;;;;;;61.03;24.77;;;;;;;;;;5074741;28;20025;-80
2021/03/24 03:32:07;;;;;;;53.63;25.37;;;;;;;;;;5074365;28;20020;-80
2021/03/24 03:34:33;;;;;;;56.90;25.77;;;;;;;;;;5061225;28;20021;-80
2021/03/24 03:36:59;;;;;;;57.03;25.83;;;;;;;;;;5075354;28;20021;-79
2021/03/24 03:39:26;;;;;;;56.23;25.53;;;;;;;;;;5074624;28;20036;-80
2021/03/24 03:41:52;;;;;;;54.97;24.87;;;;;;;;;;5073465;28;20059;-80
2021/03/24 03:44:18;;;;;;;66.50;27.27;;;;;;;;;;5073255;28;20012;-79
2021/03/24 03:46:47;;;;;;;59.27;27.47;;;;;;;;;;5073125;28;20027;-80
2021/03/24 03:49:13;;;;;;;64.40;29.30;;;;;;;;;;5074718;28;20047;-79
2021/03/24 03:51:47;;;;;;;68.93;28.20;;;;;;;;;;5073278;28;20013;-80
2021/03/24 03:54:32;;;;;;;63.60;28.20;;;;;;;;;;5072867;28;20028;-79
2021/03/24 03:57:07;;;;;;;65.73;28.90;;;;;;;;;;5074313;28;20021;-80
2021/03/24 03:59:41;;;;;;;63.53;27.83;;;;;;;;;;5074063;28;20021;-80
2021/03/24 04:02:09;;;;;;;70.93;28.47;;;;;;;;;;5072942;28;20029;-80
2021/03/24 04:04:43;;;;;;;68.63;28.50;;;;;;;;;;5074180;28;20026;-80
2021/03/24 04:07:23;;;;;;;67.17;27.23;;;;;;;;;;5074184;28;20029;-80
2021/03/24 04:09:49;;;;;;;61.93;27.27;;;;;;;;;;5074004;28;20016;-80
2021/03/24 04:12:16;;;;;;;67.00;27.23;;;;;;;;;;5072692;28;20417;-79
2021/03/24 04:14:42;;;;;;;60.40;26.57;;;;;;;;;;5072700;28;20017;-80
2021/03/24 04:17:15;;;;;;;64.70;28.10;;;;;;;;;;5073464;28;20122;-80
2021/03/24 04:19:43;;;;;;;63.10;27.27;;;;;;;;;;5072648;28;20028;-80
2021/03/24 04:22:10;;;;;;;72.43;28.40;;;;;;;;;;5073783;28;20024;-79
2021/03/24 04:24:44;;;;;;;67.50;27.87;;;;;;;;;;5072257;28;20387;-80
2021/03/24 04:27:10;;;;;;;66.73;28.63;;;;;;;;;;5073758;28;20476;-80
2021/03/24 04:29:38;;;;;;;72.00;30.10;;;;;;;;;;5073996;28;20027;-80
2021/03/24 04:32:06;;;;;;;70.83;29.87;;;;;;;;;;5073645;28;20036;-80
2021/03/24 04:34:32;;;;;;;73.93;30.07;;;;;;;;;;5072044;28;20070;-79
2021/03/24 04:37:11;;;;;;;76.70;29.93;;;;;;;;;;5072077;28;20016;-80
2021/03/24 04:39:49;;;;;;;79.77;32.17;;;;;;;;;;5073609;28;20009;-79
2021/03/24 04:42:16;;;;;;;68.80;30.13;;;;;;;;;;5073351;28;20021;-80
2021/03/24 04:44:42;;;;;;;70.70;29.20;;;;;;;;;;5073513;28;20024;-79
2021/03/24 04:47:11;;;;;;;75.00;28.80;;;;;;;;;;5072054;28;20023;-80
2021/03/24 04:49:42;;;;;;;71.63;29.50;;;;;;;;;;5073111;28;20459;-79
2021/03/24 04:52:07;;;;;;;75.37;30.13;;;;;;;;;;5072084;28;20035;-79
2021/03/24 04:54:34;;;;;;;70.80;30.53;;;;;;;;;;5071763;28;20107;-80
2021/03/24 04:57:04;;;;;;;78.87;31.20;;;;;;;;;;5073256;28;20459;-80
2021/03/24 04:59:33;;;;;;;78.27;31.43;;;;;;;;;;5071727;28;20031;-79
2021/03/24 05:02:05;;;;;;;68.83;30.03;;;;;;;;;;5071836;28;20017;-80
2021/03/24 05:04:37;;;;;;;72.07;29.55;;;;;;;;;;5073286;28;20031;-79
2021/03/24 05:07:09;;;;;;;74.53;30.38;;;;;;;;;;5072958;28;20419;-79
2021/03/24 05:09:34;;;;;;;77.47;31.23;;;;;;;;;;5071792;28;20106;-79
2021/03/24 05:12:09;;;;;;;71.13;32.13;;;;;;;;;;5065741;28;20500;-79
2021/03/24 05:14:38;;;;;;;68.07;29.60;;;;;;;;;;5065857;28;20020;-79
2021/03/24 05:17:21;;;;;;;81.20;30.63;;;;;;;;;;5072843;28;20020;-79
2021/03/24 05:19:47;;;;;;;76.60;31.67;;;;;;;;;;5072943;28;20013;-79
2021/03/24 05:22:24;;;;;;;79.20;32.00;;;;;;;;;;5072706;28;20349;-80
2021/03/24 05:24:54;;;;;;;77.40;31.87;;;;;;;;;;5072633;28;20130;-79
2021/03/24 05:27:25;;;;;;;77.00;31.10;;;;;;;;;;5072709;28;20044;-80
2021/03/24 05:29:53;;;;;;;70.90;29.47;;;;;;;;;;5071469;28;20478;-79
2021/03/24 05:32:21;;;;;;;75.63;32.93;;;;;;;;;;5072673;28;20079;-80
2021/03/24 05:34:48;;;;;;;78.90;32.87;;;;;;;;;;5072537;28;20140;-79
2021/03/24 05:37:14;;;;;;;78.30;30.83;;;;;;;;;;5071191;28;20099;-79
2021/03/24 05:39:40;;;;;;;72.40;29.70;;;;;;;;;;5072672;28;20093;-80
2021/03/24 05:42:24;;;;;;;78.77;33.57;;;;;;;;;;5072478;28;20020;-80
2021/03/24 05:45:06;;;;;;;74.87;32.37;;;;;;;;;;5071298;28;20020;-80
2021/03/24 05:47:39;;;;;;;74.25;31.83;;;;;;;;;;5072276;28;20021;-79
2021/03/24 05:50:25;;;;;;;80.17;31.43;;;;;;;;;;5071346;28;20024;-80
2021/03/24 05:53:08;;;;;;;77.43;31.13;;;;;;;;;;5067990;28;20029;-80
2021/03/24 05:55:52;;;;;;;81.53;33.00;;;;;;;;;;5071128;28;20464;-80
2021/03/24 05:58:26;;;;;;;81.23;34.23;;;;;;;;;;5070904;28;20413;-80
2021/03/24 06:01:06;;;;;;;86.93;34.30;;;;;;;;;;5072486;28;20329;-80
2021/03/24 06:03:50;;;;;;;86.23;33.63;;;;;;;;;;5070633;28;20055;-80
2021/03/24 06:06:15;;;;;;;83.13;33.80;;;;;;;;;;5072143;28;20028;-80
2021/03/24 06:08:52;;;;;;;80.67;33.30;;;;;;;;;;5072474;28;20020;-80
2021/03/24 06:11:26;;;;;;;84.27;33.83;;;;;;;;;;5072284;28;20052;-79
2021/03/24 06:14:10;;;;;;;89.73;34.63;;;;;;;;;;5072365;28;20090;-80
2021/03/24 06:16:44;;;;;;;87.60;34.23;;;;;;;;;;5072153;28;20468;-80
2021/03/24 06:19:16;;;;;;;89.87;35.00;;;;;;;;;;5074718;28;20013;-79
2021/03/24 06:21:52;;;;;;;90.47;35.13;;;;;;;;;;5076699;28;20031;-79
2021/03/24 06:24:29;;;;;;;83.27;34.27;;;;;;;;;;5076196;28;20020;-80
2021/03/24 06:26:57;;;;;;;84.13;33.23;;;;;;;;;;5074531;28;20028;-80
2021/03/24 06:29:22;;;;;;;85.37;34.07;;;;;;;;;;5074806;28;20013;-80
2021/03/24 06:31:59;;;;;;;86.70;37.40;;;;;;;;;;5075808;28;20348;-80
2021/03/24 06:34:36;;;;;;;91.10;35.57;;;;;;;;;;5074586;28;20038;-80
2021/03/24 06:37:20;;;;;;;95.67;36.90;;;;;;;;;;5074562;28;20039;-80
2021/03/24 06:39:58;;;;;;;89.93;35.93;;;;;;;;;;5075874;28;20093;-80
2021/03/24 06:42:23;;;;;;;94.20;38.63;;;;;;;;;;5075710;28;20379;-80
2021/03/24 06:45:15;;;;;;;88.50;37.22;;;;;;;;;;5074309;28;20028;-80
2021/03/24 06:47:52;;;;;;;92.80;36.72;;;;;;;;;;5075370;28;20021;-80
2021/03/24 06:50:23;;;;;;;88.77;35.67;;;;;;;;;;5074342;28;20030;-79
2021/03/24 06:52:48;;;;;;;92.13;35.07;;;;;;;;;;5075535;28;20046;-80
2021/03/24 06:55:32;;;;;;;91.50;38.13;;;;;;;;;;5075529;28;20021;-80
2021/03/24 06:58:00;;;;;;;86.10;35.40;;;;;;;;;;5073973;28;20533;-79
2021/03/24 07:00:51;;;;;;;83.73;34.50;;;;;;;;;;5075454;28;20012;-80
2021/03/24 07:03:34;;;;;;;94.80;36.80;;;;;;;;;;5073992;28;20056;-80
2021/03/24 07:06:23;;;;;;;91.50;35.90;;;;;;;;;;5072961;28;20089;-80
2021/03/24 07:09:15;;;;;;;87.10;36.77;;;;;;;;;;5052996;28;20086;-80
2021/03/24 07:11:50;;;;;;;95.57;36.40;;;;;;;;;;5070077;28;20031;-80
2021/03/24 07:14:38;;;;;;;89.47;35.83;;;;;;;;;;5075913;28;20021;-80
2021/03/24 07:17:22;;;;;;;85.80;35.97;;;;;;;;;;5069616;28;20024;-80
2021/03/24 07:19:50;;;;;;;90.60;38.17;;;;;;;;;;5074003;28;20048;-80
2021/03/24 07:22:15;;;;;;;90.30;36.87;;;;;;;;;;5071814;28;20024;-80
2021/03/24 07:24:46;;;;;;;94.53;37.27;;;;;;;;;;5075542;28;20025;-80
2021/03/24 07:27:30;;;;;;;86.97;36.70;;;;;;;;;;5073350;28;20097;-80
2021/03/24 07:30:14;;;;;;;92.90;37.80;;;;;;;;;;5072511;28;20037;-80
2021/03/24 07:32:52;;;;;;;95.53;38.83;;;;;;;;;;5074896;28;20420;-80
2021/03/24 07:35:26;;;;;;;94.03;37.77;;;;;;;;;;5074662;28;20021;-80
2021/03/24 07:37:51;;;;;;;97.63;38.47;;;;;;;;;;5073293;28;20078;-80
2021/03/24 07:40:17;;;;;;;98.87;36.70;;;;;;;;;;5072818;28;20020;-81
2021/03/24 07:42:42;;;;;;;90.10;36.90;;;;;;;;;;5067573;28;20052;-80
2021/03/24 07:45:16;;;;;;;90.70;36.83;;;;;;;;;;5072974;28;20029;-80
2021/03/24 07:47:46;;;;;;;84.73;35.17;;;;;;;;;;5072746;28;20021;-80
2021/03/24 07:50:21;;;;;;;90.50;36.80;;;;;;;;;;5073268;28;20074;-80
2021/03/24 07:53:03;;;;;;;101.87;36.37;;;;;;;;;;5071943;28;20021;-80
2021/03/24 07:55:34;;;;;;;84.43;34.70;;;;;;;;;;5072492;28;20063;-80
2021/03/24 07:58:08;;;;;;;90.67;38.13;;;;;;;;;;5073975;28;20036;-80
2021/03/24 08:00:34;;;;;;;95.20;38.70;;;;;;;;;;5072919;28;20475;-81
2021/03/24 08:03:03;;;;;;;83.37;35.40;;;;;;;;;;5074187;28;20013;-81
2021/03/24 08:05:31;;;;;;;87.90;33.43;;;;;;;;;;5073827;28;20025;-80
2021/03/24 08:08:19;;;;;;;89.57;35.87;;;;;;;;;;5071745;28;20020;-80
2021/03/24 08:10:45;;;;;;;88.57;36.97;;;;;;;;;;5072665;28;20029;-80
2021/03/24 08:13:29;;;;;;;89.03;36.27;;;;;;;;;;5072249;28;20494;-80
2021/03/24 08:15:59;;;;;;;90.40;36.57;;;;;;;;;;5073860;28;20428;-80
2021/03/24 08:18:27;;;;;;;92.80;37.37;;;;;;;;;;5073612;28;20074;-80
2021/03/24 08:20:55;;;;;;;81.77;32.63;;;;;;;;;;5073376;28;20326;-80
2021/03/24 08:23:23;;;;;;;86.77;35.07;;;;;;;;;;5066308;28;20040;-80
2021/03/24 08:25:54;;;;;;;90.50;36.40;;;;;;;;;;5067880;28;20031;-80
2021/03/24 08:28:33;;;;;;;86.03;36.77;;;;;;;;;;5066653;28;20025;-80
2021/03/24 08:31:07;;;;;;;89.10;34.50;;;;;;;;;;5072016;28;20017;-80
2021/03/24 08:33:36;;;;;;;93.20;37.40;;;;;;;;;;5067238;28;20472;-80
2021/03/24 08:36:05;;;;;;;91.80;40.37;;;;;;;;;;5069093;28;20131;-80
2021/03/24 08:38:42;;;;;;;84.53;36.87;;;;;;;;;;5068272;28;20024;-80
2021/03/24 08:41:13;;;;;;;90.20;36.93;;;;;;;;;;5061801;28;20025;-80
2021/03/24 08:43:48;;;;;;;88.83;35.47;;;;;;;;;;5066407;28;20024;-80
2021/03/24 08:46:28;;;;;;;85.93;35.57;;;;;;;;;;5070526;28;20008;-80
2021/03/24 08:48:53;;;;;;;81.17;33.73;;;;;;;;;;5072238;28;20017;-80
2021/03/24 08:51:26;;;;;;;88.50;34.57;;;;;;;;;;5073020;28;20099;-80
2021/03/24 08:54:00;;;;;;;88.97;35.38;;;;;;;;;;5071838;28;20491;-80
2021/03/24 08:56:40;;;;;;;83.57;34.60;;;;;;;;;;5071931;28;20111;-80
2021/03/24 08:59:11;;;;;;;81.63;33.40;;;;;;;;;;5073382;28;20020;-80
2021/03/24 09:01:45;;;;;;;86.87;35.43;;;;;;;;;;5073072;28;20349;-80
2021/03/24 09:04:37;;;;;;;91.07;36.97;;;;;;;;;;5071930;28;20043;-80
2021/03/24 09:07:03;;;;;;;96.47;34.50;;;;;;;;;;5073122;28;20029;-80
2021/03/24 09:09:28;;;;;;;88.17;36.13;;;;;;;;;;5073103;28;20491;-80
2021/03/24 09:11:53;;;;;;;83.20;34.97;;;;;;;;;;5071209;28;20020;-80
2021/03/24 09:14:25;;;;;;;85.07;36.67;;;;;;;;;;5072927;28;20021;-80
2021/03/24 09:17:05;;;;;;;84.93;31.80;;;;;;;;;;5071030;28;20024;-80
2021/03/24 09:19:55;;;;;;;92.30;33.80;;;;;;;;;;5071616;28;20032;-80
2021/03/24 09:22:30;;;;;;;89.07;33.92;;;;;;;;;;5072982;28;20476;-80
2021/03/24 09:25:14;;;;;;;90.10;34.72;;;;;;;;;;5071561;28;20052;-80
2021/03/24 09:27:56;;;;;;;87.47;36.20;;;;;;;;;;5072656;28;20440;-80
2021/03/24 09:30:42;;;;;;;77.10;33.75;;;;;;;;;;5071370;28;20472;-80
2021/03/24 09:33:36;;;;;;;77.07;30.93;;;;;;;;;;5072440;28;20028;-80
2021/03/24 09:36:17;;;;;;;74.07;29.53;;;;;;;;;;5060096;28;20085;-80
2021/03/24 09:38:43;;;;;;;78.30;29.50;;;;;;;;;;5072669;28;20101;-80
2021/03/24 09:41:14;;;;;;;74.13;28.33;;;;;;;;;;5072623;28;20036;-80
2021/03/24 09:43:42;;;;;;;72.88;32.75;;;;;;;;;;5071157;28;20024;-78
2021/03/24 09:46:15;;;;;;;74.47;31.92;;;;;;;;;;5070867;28;20032;-78
2021/03/24 09:48:43;;;;;;;88.88;34.92;;;;;;;;;;5072616;28;20533;-78
2021/03/24 09:51:15;;;;;;;78.82;32.70;;;;;;;;;;5072295;28;20020;-77
2021/03/24 09:53:42;;;;;;;69.53;29.63;;;;;;;;;;5070434;28;20040;-78
2021/03/24 09:56:13;;;;;;;79.28;33.47;;;;;;;;;;5071069;28;20078;-78
2021/03/24 09:58:38;;;;;;;77.60;31.50;;;;;;;;;;5072596;28;20095;-78
2021/03/24 10:01:10;;;;;;;74.63;30.23;;;;;;;;;;5071227;28;20059;-78
2021/03/24 10:03:35;;;;;;;;;;;;;;;;;;5071626;28;20021;-78
2021/03/24 10:06:02;;;;;;;74.68;31.95;;;;;;;;;;5072325;28;20344;-78
2021/03/24 10:08:34;;;;;;;76.90;30.00;;;;;;;;;;5071901;28;20274;-78
2021/03/24 10:11:02;;;;;;;86.18;29.38;;;;;;;;;;5071998;28;20025;-78
2021/03/24 10:13:33;;;;;;;71.30;30.70;;;;;;;;;;5069853;28;20031;-78
2021/03/24 10:15:59;;;;;;;74.30;30.90;;;;;;;;;;5072376;28;20047;-78
2021/03/24 10:18:27;;;;;;;68.30;24.92;;;;;;;;;;5072259;28;20021;-78
2021/03/24 10:21:08;;;;;;;53.10;21.70;;;;;;;;;;5072345;28;20031;-78
2021/03/24 10:23:42;;;;;;;70.32;27.73;;;;;;;;;;5070733;28;20154;-78
2021/03/24 10:26:19;;;;;;;64.90;26.17;;;;;;;;;;5070890;28;20123;-78
2021/03/24 10:28:49;;;;;;;61.00;26.52;;;;;;;;;;5071932;28;20029;-78
2021/03/24 10:31:19;;;;;;;61.08;25.35;;;;;;;;;;5070807;28;20021;-78
2021/03/24 10:33:47;;;;;;;57.58;23.20;;;;;;;;;;5066159;28;20021;-78
2021/03/24 10:36:18;;;;;;;60.08;24.88;;;;;;;;;;5068891;28;20095;-78
2021/03/24 10:39:04;;;;;;;63.13;24.15;;;;;;;;;;5067615;28;20105;-78
2021/03/24 10:41:47;;;;;;;54.50;25.33;;;;;;;;;;5070118;28;20392;-78
2021/03/24 10:44:15;;;;;;;47.88;21.30;;;;;;;;;;5070399;28;20031;-78
2021/03/24 10:46:41;;;;;;;47.25;21.15;;;;;;;;;;5069844;28;20367;-78
2021/03/24 10:49:14;;;;;;;42.72;18.60;;;;;;;;;;5068302;28;20021;-78
2021/03/24 10:51:58;;;;;;;47.72;20.10;;;;;;;;;;5069384;28;20066;-78
2021/03/24 10:54:28;;;;;;;51.58;21.27;;;;;;;;;;5071959;28;20115;-78
2021/03/24 10:56:53;;;;;;;54.63;21.63;;;;;;;;;;5071115;28;20456;-78
2021/03/24 10:59:24;;;;;;;52.45;20.67;;;;;;;;;;5071700;28;20116;-78
2021/03/24 11:01:57;;;;;;;52.25;21.73;;;;;;;;;;5069488;28;20055;-78
2021/03/24 11:04:27;;;;;;;52.88;22.50;;;;;;;;;;5071446;28;20017;-78
2021/03/24 11:07:04;;;;;;;46.70;20.02;;;;;;;;;;5072931;28;20478;-78
2021/03/24 11:09:38;;;;;;;51.85;22.73;;;;;;;;;;5068108;28;20017;-78
2021/03/24 11:12:05;;;;;;;47.08;22.52;;;;;;;;;;5073485;28;20434;-78
2021/03/24 11:14:34;;;;;;;48.63;22.02;;;;;;;;;;5072962;28;20016;-78
2021/03/24 11:17:02;;;;;;;49.80;22.58;;;;;;;;;;5072846;28;20047;-78
2021/03/24 11:19:33;;;;;;;46.72;21.17;;;;;;;;;;5073183;28;20024;-78
2021/03/24 11:22:07;;;;;;;48.13;20.42;;;;;;;;;;5074358;28;20020;-78
2021/03/24 11:24:43;;;;;;;45.30;18.52;;;;;;;;;;5067700;28;20476;-78
2021/03/24 11:27:13;;;;;;;47.17;17.58;;;;;;;;;;5074069;28;20025;-78
2021/03/24 11:29:45;;;;;;;50.33;23.17;;;;;;;;;;5074694;28;20376;-78
2021/03/24 11:32:16;;;;;;;50.15;22.00;;;;;;;;;;5073246;28;20016;-78
2021/03/24 11:34:43;;;;;;;51.17;23.98;;;;;;;;;;5073061;28;20020;-78
2021/03/24 11:37:28;;;;;;;58.65;21.02;;;;;;;;;;5073830;28;20032;-78
2021/03/24 11:39:56;;;;;;;47.70;23.00;;;;;;;;;;5073337;28;20021;-78
2021/03/24 11:42:22;;;;;;;46.13;21.27;;;;;;;;;;5074418;28;20020;-78
2021/03/24 11:44:50;;;;;;;49.05;22.10;;;;;;;;;;5069341;28;20078;-78
2021/03/24 11:47:18;;;;;;;50.97;21.35;;;;;;;;;;5072243;28;20020;-78
2021/03/24 11:50:00;;;;;;;49.28;21.85;;;;;;;;;;5073224;28;20488;-78
2021/03/24 11:52:28;;;;;;;51.22;21.23;;;;;;;;;;5074642;28;20100;-78
2021/03/24 11:55:20;;;;;;;52.63;23.80;;;;;;;;;;5072574;28;20021;-78
2021/03/24 11:57:45;;;;;;;45.03;20.50;;;;;;;;;;5048116;28;20368;-78
2021/03/24 12:00:29;;;;;;;49.83;23.88;;;;;;;;;;5073166;28;20021;-78
2021/03/24 12:03:05;;;;;;;52.58;22.83;;;;;;;;;;5072772;28;20024;-77
2021/03/24 12:05:33;;;;;;;47.67;20.92;;;;;;;;;;5074147;28;20017;-78
2021/03/24 12:08:17;;;;;;;53.22;22.88;;;;;;;;;;5073606;28;20060;-78
2021/03/24 12:10:43;;;;;;;49.95;22.77;;;;;;;;;;5072942;28;20024;-78
2021/03/24 12:13:21;;;;;;;47.83;22.58;;;;;;;;;;5072634;28;20082;-78
2021/03/24 12:15:58;;;;;;;47.75;20.95;;;;;;;;;;5072065;28;20016;-78
2021/03/24 12:18:23;;;;;;;50.28;21.63;;;;;;;;;;5072522;28;20609;-78
2021/03/24 12:20:50;;;;;;;48.25;20.88;;;;;;;;;;5072775;28;20017;-78
2021/03/24 12:23:16;;;;;;;48.95;22.23;;;;;;;;;;5073868;28;20020;-78
2021/03/24 12:25:45;;;;;;;47.90;19.10;;;;;;;;;;5073878;28;20017;-78
2021/03/24 12:28:11;;;;;;;50.53;22.08;;;;;;;;;;5073888;28;20459;-78
2021/03/24 12:30:43;;;;;;;42.20;17.77;;;;;;;;;;5073259;28;20017;-78
2021/03/24 12:33:22;;;;;;;45.70;19.67;;;;;;;;;;5073901;28;20021;-78
2021/03/24 12:36:03;;;;;;;43.67;21.23;;;;;;;;;;5073662;28;20075;-78
2021/03/24 12:38:28;;;;;;;45.65;21.55;;;;;;;;;;5073818;28;20377;-78
2021/03/24 12:40:53;;;;;;;42.15;19.88;;;;;;;;;;5073237;28;20028;-78
2021/03/24 12:43:29;;;;;;;43.05;22.63;;;;;;;;;;5073696;28;20016;-78
2021/03/24 12:46:05;;;;;;;44.60;20.10;;;;;;;;;;5071877;28;20329;-78
2021/03/24 12:48:35;;;;;;;43.30;20.15;;;;;;;;;;5072308;28;20070;-78
2021/03/24 12:51:07;;;;;;;41.67;17.48;;;;;;;;;;5073415;28;20028;-78
2021/03/24 12:53:32;;;;;;;;;;;;;;;;;;5073725;28;20016;-78
2021/03/24 12:56:20;;;;;;;43.15;16.80;;;;;;;;;;5073303;28;20245;-78
2021/03/24 12:58:47;;;;;;;44.72;18.88;;;;;;;;;;5072225;28;20716;-78
2021/03/24 13:01:22;;;;;;;38.47;17.42;;;;;;;;;;5073239;28;20035;-78
2021/03/24 13:03:47;;;;;;;43.28;19.70;;;;;;;;;;5073265;28;20016;-78
2021/03/24 13:06:22;;;;;;;41.45;21.58;;;;;;;;;;5072978;28;20021;-78
2021/03/24 13:08:55;;;;;;;41.05;18.08;;;;;;;;;;5073239;28;20059;-78
2021/03/24 13:11:34;;;;;;;40.35;16.98;;;;;;;;;;5073305;28;20021;-78
2021/03/24 13:13:59;;;;;;;45.33;17.70;;;;;;;;;;5071864;28;20021;-78
2021/03/24 13:16:33;;;;;;;36.83;17.88;;;;;;;;;;5073048;28;20043;-78
2021/03/24 13:19:05;;;;;;;41.78;17.90;;;;;;;;;;5073086;28;20349;-78
2021/03/24 13:21:37;;;;;;;43.40;20.57;;;;;;;;;;5071698;28;20020;-78
2021/03/24 13:24:05;;;;;;;47.17;21.85;;;;;;;;;;5071707;28;20533;-78
2021/03/24 13:26:37;;;;;;;44.92;18.45;;;;;;;;;;5072868;28;20063;-78
2021/03/24 13:29:21;;;;;;;41.72;18.77;;;;;;;;;;5072636;28;20467;-78
2021/03/24 13:31:59;;;;;;;42.58;18.00;;;;;;;;;;5071295;28;20107;-78
2021/03/24 13:34:34;;;;;;;41.60;18.73;;;;;;;;;;5071175;28;20020;-78
2021/03/24 13:36:59;;;;;;;43.08;18.42;;;;;;;;;;5069980;28;20116;-78
2021/03/24 13:39:30;;;;;;;43.47;19.00;;;;;;;;;;5058518;28;20533;-78
2021/03/24 13:42:03;;;;;;;47.58;19.35;;;;;;;;;;5072188;28;20020;-78
2021/03/24 13:44:42;;;;;;;44.13;21.13;;;;;;;;;;5065053;28;20048;-78
2021/03/24 13:47:12;;;;;;;41.15;17.30;;;;;;;;;;5072150;28;20020;-78
2021/03/24 13:49:40;;;;;;;44.15;20.58;;;;;;;;;;5072492;28;20017;-78
2021/03/24 13:52:11;;;;;;;41.15;17.25;;;;;;;;;;5071055;28;20016;-78
2021/03/24 13:55:06;;;;;;;45.95;17.83;;;;;;;;;;5072235;28;20024;-78
2021/03/24 13:57:39;;;;;;;46.20;21.23;;;;;;;;;;5067645;28;20043;-78
2021/03/24 14:00:23;;;;;;;44.88;18.20;;;;;;;;;;5071931;28;20470;-78
2021/03/24 14:03:00;;;;;;;49.15;18.92;;;;;;;;;;5071019;28;20543;-78
2021/03/24 14:05:37;;;;;;;38.85;16.63;;;;;;;;;;5070921;28;20028;-78
2021/03/24 14:08:02;;;;;;;39.65;17.52;;;;;;;;;;5072086;28;20020;-78
2021/03/24 14:10:36;;;;;;;42.13;18.83;;;;;;;;;;5070922;28;20027;-78
2021/03/24 14:13:19;;;;;;;42.22;18.25;;;;;;;;;;5070849;28;20111;-78
2021/03/24 14:15:50;;;;;;;46.42;18.10;;;;;;;;;;5072244;28;20543;-78
2021/03/24 14:18:31;;;;;;;48.28;19.42;;;;;;;;;;5070723;28;20115;-78
2021/03/24 14:21:11;;;;;;;43.58;17.15;;;;;;;;;;5071698;28;20027;-78
2021/03/24 14:23:37;;;;;;;46.92;19.40;;;;;;;;;;5071938;28;20062;-78
2021/03/24 14:26:07;;;;;;;51.60;19.55;;;;;;;;;;5070634;28;20017;-78
2021/03/24 14:28:32;;;;;;;42.50;18.85;;;;;;;;;;5072232;28;20025;-78
2021/03/24 14:31:00;;;;;;;49.70;20.98;;;;;;;;;;5068943;28;20393;-78
2021/03/24 14:33:25;;;;;;;46.35;19.02;;;;;;;;;;5062638;28;20459;-78
2021/03/24 14:35:51;;;;;;;43.63;20.67;;;;;;;;;;5071787;28;20062;-78
2021/03/24 14:38:22;;;;;;;45.38;19.63;;;;;;;;;;5071921;28;20100;-78
2021/03/24 14:40:52;;;;;;;52.33;20.98;;;;;;;;;;5075071;28;20470;-78
2021/03/24 14:43:27;;;;;;;41.63;19.63;;;;;;;;;;5074363;28;20024;-78